WetterOnline ( http://www.wetteronline.de )

Wetter aktuell Geseke

Aktuelles Wetter: Bad Lippspringe (158m)

6-stündlich | Neueste Meldungen
Ortszeit Temperatur Wetter
Mi, 19.12. 1:00 3.5° C bedeckt
Di, 18.12. 19:00 4.3° C wolkig
Di, 18.12. 13:00 6.2° C leicht bewölkt
Di, 18.12. 7:00 5.0° C bedeckt
Di, 18.12. 1:00 5.4° C bewölkt
Mo, 17.12. 19:00 4.5° C Regen
Mo, 17.12. 13:00 3.8° C Regen
Mo, 17.12. 7:00 1.8° C bewölkt
Ortszeit Temperatur Wetter
Mi, 19.12. 1:30 3.6° C bedeckt
Mi, 19.12. 1:20 3.6° C bedeckt
Mi, 19.12. 1:10 3.5° C bedeckt
Mi, 19.12. 1:00 3.5° C bedeckt
Mi, 19.12. 0:40 3.6° C bedeckt
Mi, 19.12. 0:30 3.8° C bedeckt
Mi, 19.12. 0:00 4.0° C bedeckt
Di, 18.12. 23:30 3.9° C bewölkt
Di, 18.12. 23:00 4.1° C wolkig
Di, 18.12. 22:30 4.2° C bewölkt
Ortszeit Relative Feuchte Sichtweite
Mi, 19.12. 1:00 75% 35 km
Di, 18.12. 19:00 78% 55 km
Di, 18.12. 13:00 77% 45 km
Di, 18.12. 7:00 86% 30 km
Di, 18.12. 1:00 88% 13 km
Mo, 17.12. 19:00 94% 11 km
Mo, 17.12. 13:00 87% -
Mo, 17.12. 7:00 88% -
Ortszeit Relative Feuchte Sichtweite
Mi, 19.12. 1:30 72% 45 km
Mi, 19.12. 1:20 72% -
Mi, 19.12. 1:10 74% -
Mi, 19.12. 1:00 75% 35 km
Mi, 19.12. 0:40 75% -
Mi, 19.12. 0:30 75% 35 km
Mi, 19.12. 0:00 75% 45 km
Di, 18.12. 23:30 77% 45 km
Di, 18.12. 23:00 77% 40 km
Di, 18.12. 22:30 77% 50 km
Ortszeit Niederschlagsmenge Niederschlagsart
Mi, 19.12. 1:00 0.0 l/m2 in 6 Std. -
Di, 18.12. 19:00 0.0 l/m2 in 12 Std. -
Di, 18.12. 13:00 0.0 l/m2 in 6 Std. -
Di, 18.12. 7:00 0.2 l/m2 in 12 Std. Niederschlag
Di, 18.12. 1:00 0.2 l/m2 in 6 Std. Niederschlag
Mo, 17.12. 19:00 1 l/m2 in 12 Std. Regen
Mo, 17.12. 13:00 0.4 l/m2 in 6 Std. -
Mo, 17.12. 7:00 0.0 l/m2 in 12 Std. -
Ortszeit Niederschlagsmenge Niederschlagsart
Mi, 19.12. 1:30 0.0 l/m2 in 1 Std. -
Mi, 19.12. 1:20 keine Meldung -
Mi, 19.12. 1:10 keine Meldung -
Mi, 19.12. 1:00 0.0 l/m2 in 1 Std. -
Mi, 19.12. 0:40 keine Meldung -
Mi, 19.12. 0:30 0.0 l/m2 in 1 Std. -
Mi, 19.12. 0:00 0.0 l/m2 in 1 Std. -
Di, 18.12. 23:30 0.0 l/m2 in 1 Std. -
Di, 18.12. 23:00 0.0 l/m2 in 1 Std. -
Di, 18.12. 22:30 0.0 l/m2 in 1 Std. -
Ortszeit Stärke Spitze Richtung
km/h Bft. km/h Grad Sektor
Mi, 19.12. 1:00 14 3 47 150° SO
Di, 18.12. 19:00 11 2 29 150° SO
Di, 18.12. 13:00 11 2 29 160° S
Di, 18.12. 7:00 7 2 14 210° SW
Di, 18.12. 1:00 9 2 19 220° SW
Mo, 17.12. 19:00 11 2 25 200° S
Mo, 17.12. 13:00 9 2 19 150° SO
Mo, 17.12. 7:00 9 2 15 120° SO
Ortszeit Stärke Spitze Richtung
km/h Bft. km/h Grad Sektor
Mi, 19.12. 1:30 20 4 35 140° SO
Mi, 19.12. 1:20 20 4 - 140° SO
Mi, 19.12. 1:10 17 3 - 150° SO
Mi, 19.12. 1:00 14 3 47 150° SO
Mi, 19.12. 0:40 14 3 - 170° S
Mi, 19.12. 0:30 26 4 46 140° SO
Mi, 19.12. 0:00 22 4 43 140° SO
Di, 18.12. 23:30 19 3 44 140° SO
Di, 18.12. 23:00 22 4 47 130° SO
Di, 18.12. 22:30 25 4 47 130° SO
Ortszeit Untergrenze Bedeckung Gattung
total tief tief mittel hoch
Mi, 19.12. 1:00 5100 m 8/8 8/8 - - -
Di, 18.12. 19:00 9000 m 8/8 0/8 - - -
Di, 18.12. 13:00 10500 m 8/8 0/8 - - -
Di, 18.12. 7:00 540 m 8/8 8/8 - - -
Di, 18.12. 1:00 450 m 7/8 7/8 - - -
Mo, 17.12. 19:00 240 m 7/8 7/8 - - -
Mo, 17.12. 13:00 540 m 8/8 8/8 - - -
Mo, 17.12. 7:00 510 m 8/8 5/8 - - -
Ortszeit Bedeckungsgrad in Achtel und Wolkenuntergrenze
Mi, 19.12. 1:30 7(4800m) 8(5700m) 8(8700m)
Mi, 19.12. 1:20 7(4800m) 8(5700m) 8(8700m)
Mi, 19.12. 1:10 7(5100m) 8(5700m) 8(6600m)
Mi, 19.12. 1:00 7(5100m) 8(6000m) 8(6600m)
Mi, 19.12. 0:40 6(5400m) 8(6600m) 8(9000m)
Mi, 19.12. 0:30 2(4800m) 8(6900m) 8(9000m)
Mi, 19.12. 0:00 3(5100m) 8(6000m) 8(9000m)
Di, 18.12. 23:30 4(5100m) 8(9000m) 8(10500m)
Di, 18.12. 23:00 2(6900m) 8(9000m) 8(10500m)
Di, 18.12. 22:30 5(6900m) 8(9000m) 8(10500m)
Ortszeit Luftdruck NN (hPa) Tendenz (hPa in 3 Std.)
Mi, 19.12. 1:00 1016 - 1,7
Di, 18.12. 19:00 1021 - 1,2
Di, 18.12. 13:00 1024 - 1,6
Di, 18.12. 7:00 1025 + 0,2
Di, 18.12. 1:00 1025 + 0,7
Mo, 17.12. 19:00 1022 + 2,3
Mo, 17.12. 13:00 1019 + 0,3
Mo, 17.12. 7:00 1017 + 0,9
Ortszeit Luftdruck NN (hPa) Tendenz (hPa in 3 Std.)
Mi, 19.12. 1:30 1015 - 2,5
Mi, 19.12. 1:20 1015 keine Meldung
Mi, 19.12. 1:10 1015 keine Meldung
Mi, 19.12. 1:00 1016 - 1,7
Mi, 19.12. 0:40 1016 keine Meldung
Mi, 19.12. 0:30 1015 - 2,1
Mi, 19.12. 0:00 1016 - 1,9
Di, 18.12. 23:30 1016 - 2,2
Di, 18.12. 23:00 1017 - 3,0
Di, 18.12. 22:30 1017 - 3,0
Ortszeit Schneehöhe (cm)
Mi, 19.12. 1:00 0
Di, 18.12. 19:00 0
Di, 18.12. 13:00 0
Di, 18.12. 7:00 0
Di, 18.12. 1:00 0
Mo, 17.12. 19:00 0
Mo, 17.12. 13:00 0
Mo, 17.12. 7:00 0
Ortszeit Schneehöhe (cm)
Mi, 19.12. 1:30 0
Mi, 19.12. 1:20 0
Mi, 19.12. 1:10 0
Mi, 19.12. 1:00 0
Mi, 19.12. 0:40 0
Mi, 19.12. 0:30 0
Mi, 19.12. 0:00 0
Di, 18.12. 23:30 0
Di, 18.12. 23:00 0
Di, 18.12. 22:30 0
Link zu dieser Seite / Seite empfehlen

Das Wetter in ...